Airfield :







YOU CAN JOIN US ON...

 
LOGIN :

Register | Disclaimer

   EN    FR    IT 

 









Legend :    VFR   Marginal VFR   IFR   Intensive IFR   Very Intensive IFR
Visi :
Ceiling :
>= 8 km
>= 3000ft
5 to 8 km
1000 to 3000 ft
1500m to 5 km
500 to 1000 ft
800 to 1500m
200 to 500 ft
< 800m
< 200 ft
Symbols :   Thunderstorms  Fog  Heavy snow  Heavy precipitations  Wind > 20 kt







- Airport Elevation : 496 ft
- IATA code : YQX


CYQX - Gander

CURRENT METAR :
  • 221300Z 23010G16KT 15SM SCT007 SCT013 BKN056 OVC080 11/10 A3004 RMK SF3SC1SC3AC1 SLP178

EXPIRED METARs :
  • 221247Z 22013KT 15SM SCT006 SCT014 BKN052 OVC080 10/10 A3004 RMK SF3SC1SC3AC1 SLP177
  • 221200Z CCA 22012KT 15SM BKN008 BKN014 BKN042 OVC080 10/09 A3004 RMK SF5SC1SC1AC1 SLP178
  • 221100Z 24010KT 15SM BKN005 BKN012 BKN032 OVC080 09/09 A3005 RMK SF5SC1SC1AC1 SLP180

TAF AMD TAF CYQX
Valid from the 22 at 13:00 until the 23 at 12:00 UTC


221317Z 2213/2312 23015KT P6SM SCT015 BKN050
TEMPO 2213/2215 4SM -RA BR BKN007 OVC015
FM221500 27015G25KT P6SM OVC012
TEMPO 2215/2217 BKN025
FM221700 30012G22KT P6SM BKN030
FM222000 34010G20KT P6SM FEW030 SCT180
BECMG 2222/2224 35010KT RMK NXT FCST BY 221800Z
CZQX FIR / North America



MET'MAP, your aeronautical weather chart ! - Copyright ORBIFLY December 2007 - Disclaimer

ORBIFLY MET'MAP TEAM :

Programming & Development : Alexandra Zaïnal
Concept & Development : Baudouin d'Aumeries
Co-Development & Prog : Marc-Olivier Méhu
Technical & hardware support : Manuel Goepfert

Contact : metmap@orbifly.com




SOURCES & CREDITS :

   NOAA